sensor_id;sensor_type;location;lat;lon;timestamp;P1;durP1;ratioP1;P2;durP2;ratioP2
8982;SDS011;20979;59.850;10.660;2023-04-24T00:01:55;3.03;;;1.60;;
8982;SDS011;20979;59.850;10.660;2023-04-24T00:04:23;1.60;;;1.50;;
8982;SDS011;20979;59.850;10.660;2023-04-24T00:06:52;1.60;;;1.50;;
8982;SDS011;20979;59.850;10.660;2023-04-24T00:09:23;1.33;;;1.23;;
8982;SDS011;20979;59.850;10.660;2023-04-24T00:11:51;1.60;;;1.50;;
8982;SDS011;20979;59.850;10.660;2023-04-24T00:14:18;2.03;;;1.70;;
8982;SDS011;20979;59.850;10.660;2023-04-24T00:16:46;1.60;;;1.50;;
8982;SDS011;20979;59.850;10.660;2023-04-24T00:19:13;1.67;;;1.57;;
8982;SDS011;20979;59.850;10.660;2023-04-24T00:21:41;2.13;;;1.70;;
8982;SDS011;20979;59.850;10.660;2023-04-24T00:24:08;1.60;;;1.50;;
8982;SDS011;20979;59.850;10.660;2023-04-24T00:26:37;1.50;;;1.40;;
8982;SDS011;20979;59.850;10.660;2023-04-24T00:29:05;2.13;;;1.80;;
8982;SDS011;20979;59.850;10.660;2023-04-24T00:31:32;1.70;;;1.60;;
8982;SDS011;20979;59.850;10.660;2023-04-24T00:34:00;1.80;;;1.70;;
8982;SDS011;20979;59.850;10.660;2023-04-24T00:36:28;1.80;;;1.70;;
8982;SDS011;20979;59.850;10.660;2023-04-24T00:38:56;2.30;;;1.67;;
8982;SDS011;20979;59.850;10.660;2023-04-24T00:41:23;2.03;;;1.83;;
8982;SDS011;20979;59.850;10.660;2023-04-24T00:43:53;2.00;;;1.80;;
8982;SDS011;20979;59.850;10.660;2023-04-24T00:46:20;1.80;;;1.70;;
8982;SDS011;20979;59.850;10.660;2023-04-24T00:48:48;1.83;;;1.73;;
8982;SDS011;20979;59.850;10.660;2023-04-24T00:51:15;2.40;;;1.50;;
8982;SDS011;20979;59.850;10.660;2023-04-24T00:53:43;1.50;;;1.40;;
8982;SDS011;20979;59.850;10.660;2023-04-24T00:56:10;1.40;;;1.30;;
8982;SDS011;20979;59.850;10.660;2023-04-24T00:58:37;1.60;;;1.50;;
8982;SDS011;20979;59.850;10.660;2023-04-24T01:01:08;1.47;;;1.37;;
8982;SDS011;20979;59.850;10.660;2023-04-24T01:03:36;2.60;;;1.60;;
8982;SDS011;20979;59.850;10.660;2023-04-24T01:06:04;1.47;;;1.37;;
8982;SDS011;20979;59.850;10.660;2023-04-24T01:08:32;2.57;;;1.60;;
8982;SDS011;20979;59.850;10.660;2023-04-24T01:10:59;1.87;;;1.73;;
8982;SDS011;20979;59.850;10.660;2023-04-24T01:13:29;1.90;;;1.80;;
8982;SDS011;20979;59.850;10.660;2023-04-24T01:15:56;2.00;;;1.90;;
8982;SDS011;20979;59.850;10.660;2023-04-24T01:18:26;1.97;;;1.80;;
8982;SDS011;20979;59.850;10.660;2023-04-24T01:20:54;2.00;;;1.90;;
8982;SDS011;20979;59.850;10.660;2023-04-24T01:23:25;2.37;;;2.17;;
8982;SDS011;20979;59.850;10.660;2023-04-24T01:25:52;2.00;;;1.80;;
8982;SDS011;20979;59.850;10.660;2023-04-24T01:28:20;2.40;;;2.20;;
8982;SDS011;20979;59.850;10.660;2023-04-24T01:30:47;2.00;;;1.90;;
8982;SDS011;20979;59.850;10.660;2023-04-24T01:33:15;2.30;;;2.10;;
8982;SDS011;20979;59.850;10.660;2023-04-24T01:35:42;2.47;;;2.27;;
8982;SDS011;20979;59.850;10.660;2023-04-24T01:38:10;2.13;;;2.03;;
8982;SDS011;20979;59.850;10.660;2023-04-24T01:40:39;2.33;;;2.13;;
8982;SDS011;20979;59.850;10.660;2023-04-24T01:43:06;2.50;;;2.30;;
8982;SDS011;20979;59.850;10.660;2023-04-24T01:45:34;2.20;;;2.00;;
8982;SDS011;20979;59.850;10.660;2023-04-24T01:48:01;3.13;;;2.30;;
8982;SDS011;20979;59.850;10.660;2023-04-24T01:50:29;2.20;;;2.00;;
8982;SDS011;20979;59.850;10.660;2023-04-24T01:52:56;2.27;;;2.10;;
8982;SDS011;20979;59.850;10.660;2023-04-24T01:55:24;2.67;;;2.20;;
8982;SDS011;20979;59.850;10.660;2023-04-24T01:57:52;2.00;;;1.80;;
8982;SDS011;20979;59.850;10.660;2023-04-24T02:00:22;2.83;;;2.10;;
8982;SDS011;20979;59.850;10.660;2023-04-24T02:02:50;1.90;;;1.80;;
8982;SDS011;20979;59.850;10.660;2023-04-24T02:05:18;2.30;;;2.10;;
8982;SDS011;20979;59.850;10.660;2023-04-24T02:07:45;2.20;;;2.00;;
8982;SDS011;20979;59.850;10.660;2023-04-24T02:10:12;2.27;;;2.07;;
8982;SDS011;20979;59.850;10.660;2023-04-24T02:12:40;1.90;;;1.80;;
8982;SDS011;20979;59.850;10.660;2023-04-24T02:15:09;2.47;;;1.97;;
8982;SDS011;20979;59.850;10.660;2023-04-24T02:17:37;3.30;;;2.10;;
8982;SDS011;20979;59.850;10.660;2023-04-24T02:20:05;1.87;;;1.77;;
8982;SDS011;20979;59.850;10.660;2023-04-24T02:22:32;2.07;;;1.60;;
8982;SDS011;20979;59.850;10.660;2023-04-24T02:25:00;2.13;;;1.93;;
8982;SDS011;20979;59.850;10.660;2023-04-24T02:27:27;1.60;;;1.50;;
8982;SDS011;20979;59.850;10.660;2023-04-24T02:29:55;2.27;;;1.93;;
8982;SDS011;20979;59.850;10.660;2023-04-24T02:32:24;2.00;;;1.80;;
8982;SDS011;20979;59.850;10.660;2023-04-24T02:34:51;1.90;;;1.80;;
8982;SDS011;20979;59.850;10.660;2023-04-24T02:37:18;1.60;;;1.50;;
8982;SDS011;20979;59.850;10.660;2023-04-24T02:39:46;2.17;;;1.70;;
8982;SDS011;20979;59.850;10.660;2023-04-24T02:42:14;1.60;;;1.50;;
8982;SDS011;20979;59.850;10.660;2023-04-24T02:44:41;3.87;;;1.93;;
8982;SDS011;20979;59.850;10.660;2023-04-24T02:47:08;1.60;;;1.50;;
8982;SDS011;20979;59.850;10.660;2023-04-24T02:49:37;1.93;;;1.50;;
8982;SDS011;20979;59.850;10.660;2023-04-24T02:52:05;1.33;;;1.23;;
8982;SDS011;20979;59.850;10.660;2023-04-24T02:54:32;1.30;;;1.20;;
8982;SDS011;20979;59.850;10.660;2023-04-24T02:56:59;1.93;;;1.07;;
8982;SDS011;20979;59.850;10.660;2023-04-24T02:59:27;1.00;;;1.00;;
8982;SDS011;20979;59.850;10.660;2023-04-24T03:01:55;1.03;;;0.97;;
8982;SDS011;20979;59.850;10.660;2023-04-24T03:04:22;1.20;;;1.10;;
8982;SDS011;20979;59.850;10.660;2023-04-24T03:06:51;1.00;;;1.00;;
8982;SDS011;20979;59.850;10.660;2023-04-24T03:09:19;0.90;;;0.90;;
8982;SDS011;20979;59.850;10.660;2023-04-24T03:11:47;1.97;;;1.00;;
8982;SDS011;20979;59.850;10.660;2023-04-24T03:14:14;1.40;;;0.83;;
8982;SDS011;20979;59.850;10.660;2023-04-24T03:16:42;1.10;;;1.00;;
8982;SDS011;20979;59.850;10.660;2023-04-24T03:19:09;1.10;;;1.10;;
8982;SDS011;20979;59.850;10.660;2023-04-24T03:21:37;0.83;;;0.83;;
8982;SDS011;20979;59.850;10.660;2023-04-24T03:24:07;1.00;;;0.77;;
8982;SDS011;20979;59.850;10.660;2023-04-24T03:26:34;1.10;;;1.00;;
8982;SDS011;20979;59.850;10.660;2023-04-24T03:29:02;0.87;;;0.87;;
8982;SDS011;20979;59.850;10.660;2023-04-24T03:31:30;1.20;;;0.90;;
8982;SDS011;20979;59.850;10.660;2023-04-24T03:33:57;0.80;;;0.80;;
8982;SDS011;20979;59.850;10.660;2023-04-24T03:36:24;0.87;;;0.87;;
8982;SDS011;20979;59.850;10.660;2023-04-24T03:38:52;0.90;;;0.90;;
8982;SDS011;20979;59.850;10.660;2023-04-24T03:41:21;0.97;;;0.80;;
8982;SDS011;20979;59.850;10.660;2023-04-24T03:43:49;1.50;;;0.90;;
8982;SDS011;20979;59.850;10.660;2023-04-24T03:46:16;0.87;;;0.70;;
8982;SDS011;20979;59.850;10.660;2023-04-24T03:48:43;1.07;;;1.00;;
8982;SDS011;20979;59.850;10.660;2023-04-24T03:51:11;0.97;;;0.97;;
8982;SDS011;20979;59.850;10.660;2023-04-24T03:53:38;0.80;;;0.80;;
8982;SDS011;20979;59.850;10.660;2023-04-24T03:56:05;0.77;;;0.77;;
8982;SDS011;20979;59.850;10.660;2023-04-24T03:58:34;1.80;;;1.10;;
8982;SDS011;20979;59.850;10.660;2023-04-24T04:01:02;0.90;;;0.80;;
8982;SDS011;20979;59.850;10.660;2023-04-24T04:03:29;0.80;;;0.80;;
8982;SDS011;20979;59.850;10.660;2023-04-24T04:05:56;0.80;;;0.80;;
8982;SDS011;20979;59.850;10.660;2023-04-24T04:08:24;0.73;;;0.73;;
8982;SDS011;20979;59.850;10.660;2023-04-24T04:10:51;1.17;;;0.90;;
8982;SDS011;20979;59.850;10.660;2023-04-24T04:13:19;1.67;;;1.20;;
8982;SDS011;20979;59.850;10.660;2023-04-24T04:15:47;1.07;;;1.00;;
8982;SDS011;20979;59.850;10.660;2023-04-24T04:18:15;0.70;;;0.70;;
8982;SDS011;20979;59.850;10.660;2023-04-24T04:20:42;0.93;;;0.90;;
8982;SDS011;20979;59.850;10.660;2023-04-24T04:23:09;0.90;;;0.90;;
8982;SDS011;20979;59.850;10.660;2023-04-24T04:25:37;1.10;;;1.00;;
8982;SDS011;20979;59.850;10.660;2023-04-24T04:28:04;0.77;;;0.77;;
8982;SDS011;20979;59.850;10.660;2023-04-24T04:30:32;1.00;;;0.90;;
8982;SDS011;20979;59.850;10.660;2023-04-24T04:33:01;0.70;;;0.70;;
8982;SDS011;20979;59.850;10.660;2023-04-24T04:35:28;0.80;;;0.80;;
8982;SDS011;20979;59.850;10.660;2023-04-24T04:37:55;0.80;;;0.80;;
8982;SDS011;20979;59.850;10.660;2023-04-24T04:40:24;1.37;;;0.93;;
8982;SDS011;20979;59.850;10.660;2023-04-24T04:42:51;1.20;;;0.90;;
8982;SDS011;20979;59.850;10.660;2023-04-24T04:45:19;0.60;;;0.60;;
8982;SDS011;20979;59.850;10.660;2023-04-24T04:47:46;0.90;;;0.90;;
8982;SDS011;20979;59.850;10.660;2023-04-24T04:50:15;0.67;;;0.67;;
8982;SDS011;20979;59.850;10.660;2023-04-24T04:52:44;1.37;;;1.07;;
8982;SDS011;20979;59.850;10.660;2023-04-24T04:55:12;0.80;;;0.70;;
8982;SDS011;20979;59.850;10.660;2023-04-24T04:57:39;0.63;;;0.63;;
8982;SDS011;20979;59.850;10.660;2023-04-24T05:00:07;0.67;;;0.67;;
8982;SDS011;20979;59.850;10.660;2023-04-24T05:02:37;0.80;;;0.80;;
8982;SDS011;20979;59.850;10.660;2023-04-24T05:05:04;0.70;;;0.70;;
8982;SDS011;20979;59.850;10.660;2023-04-24T05:07:33;0.77;;;0.70;;
8982;SDS011;20979;59.850;10.660;2023-04-24T05:10:01;0.60;;;0.60;;
8982;SDS011;20979;59.850;10.660;2023-04-24T05:12:28;0.67;;;0.63;;
8982;SDS011;20979;59.850;10.660;2023-04-24T05:14:56;0.70;;;0.70;;
8982;SDS011;20979;59.850;10.660;2023-04-24T05:17:23;0.70;;;0.70;;
8982;SDS011;20979;59.850;10.660;2023-04-24T05:19:51;0.60;;;0.60;;
8982;SDS011;20979;59.850;10.660;2023-04-24T05:22:18;1.00;;;0.70;;
8982;SDS011;20979;59.850;10.660;2023-04-24T05:24:47;0.50;;;0.50;;
8982;SDS011;20979;59.850;10.660;2023-04-24T05:27:15;1.13;;;0.50;;
8982;SDS011;20979;59.850;10.660;2023-04-24T05:29:42;0.70;;;0.70;;
8982;SDS011;20979;59.850;10.660;2023-04-24T05:32:10;0.60;;;0.60;;
8982;SDS011;20979;59.850;10.660;2023-04-24T05:34:37;2.53;;;0.63;;
8982;SDS011;20979;59.850;10.660;2023-04-24T05:37:04;0.70;;;0.70;;
8982;SDS011;20979;59.850;10.660;2023-04-24T05:39:34;0.83;;;0.73;;
8982;SDS011;20979;59.850;10.660;2023-04-24T05:42:04;0.80;;;0.80;;
8982;SDS011;20979;59.850;10.660;2023-04-24T05:44:31;0.70;;;0.70;;
8982;SDS011;20979;59.850;10.660;2023-04-24T05:46:59;0.90;;;0.90;;
8982;SDS011;20979;59.850;10.660;2023-04-24T05:49:26;0.67;;;0.67;;
8982;SDS011;20979;59.850;10.660;2023-04-24T05:51:54;0.83;;;0.83;;
8982;SDS011;20979;59.850;10.660;2023-04-24T05:54:21;0.90;;;0.90;;
8982;SDS011;20979;59.850;10.660;2023-04-24T05:56:49;0.87;;;0.77;;
8982;SDS011;20979;59.850;10.660;2023-04-24T05:59:17;0.80;;;0.80;;
8982;SDS011;20979;59.850;10.660;2023-04-24T06:01:45;1.03;;;0.90;;
8982;SDS011;20979;59.850;10.660;2023-04-24T06:04:12;1.10;;;1.00;;
8982;SDS011;20979;59.850;10.660;2023-04-24T06:06:40;1.00;;;0.90;;
8982;SDS011;20979;59.850;10.660;2023-04-24T06:09:07;1.30;;;1.20;;
8982;SDS011;20979;59.850;10.660;2023-04-24T06:11:34;1.07;;;1.00;;
8982;SDS011;20979;59.850;10.660;2023-04-24T06:14:02;1.43;;;0.97;;
8982;SDS011;20979;59.850;10.660;2023-04-24T06:16:31;1.47;;;1.17;;
8982;SDS011;20979;59.850;10.660;2023-04-24T06:18:58;1.17;;;1.00;;
8982;SDS011;20979;59.850;10.660;2023-04-24T06:21:25;1.10;;;1.00;;
8982;SDS011;20979;59.850;10.660;2023-04-24T06:23:53;1.00;;;1.00;;
8982;SDS011;20979;59.850;10.660;2023-04-24T06:26:21;0.90;;;0.90;;
8982;SDS011;20979;59.850;10.660;2023-04-24T06:28:50;0.80;;;0.80;;
8982;SDS011;20979;59.850;10.660;2023-04-24T06:31:18;0.73;;;0.73;;
8982;SDS011;20979;59.850;10.660;2023-04-24T06:33:47;0.80;;;0.80;;
8982;SDS011;20979;59.850;10.660;2023-04-24T06:36:15;0.80;;;0.80;;
8982;SDS011;20979;59.850;10.660;2023-04-24T06:38:42;0.80;;;0.80;;
8982;SDS011;20979;59.850;10.660;2023-04-24T06:41:10;1.03;;;0.93;;
8982;SDS011;20979;59.850;10.660;2023-04-24T06:43:38;2.03;;;0.90;;
8982;SDS011;20979;59.850;10.660;2023-04-24T06:46:05;1.17;;;0.90;;
8982;SDS011;20979;59.850;10.660;2023-04-24T06:48:32;1.30;;;1.07;;
8982;SDS011;20979;59.850;10.660;2023-04-24T06:51:01;0.90;;;0.90;;
8982;SDS011;20979;59.850;10.660;2023-04-24T06:53:29;1.10;;;1.10;;
8982;SDS011;20979;59.850;10.660;2023-04-24T06:55:56;2.20;;;1.10;;
8982;SDS011;20979;59.850;10.660;2023-04-24T06:58:24;1.03;;;0.90;;
8982;SDS011;20979;59.850;10.660;2023-04-24T07:00:52;1.20;;;1.10;;
8982;SDS011;20979;59.850;10.660;2023-04-24T07:03:19;1.87;;;1.00;;
8982;SDS011;20979;59.850;10.660;2023-04-24T07:05:46;1.27;;;1.07;;
8982;SDS011;20979;59.850;10.660;2023-04-24T07:08:15;1.23;;;1.00;;
8982;SDS011;20979;59.850;10.660;2023-04-24T07:10:43;0.87;;;0.87;;
8982;SDS011;20979;59.850;10.660;2023-04-24T07:13:11;1.20;;;1.10;;
8982;SDS011;20979;59.850;10.660;2023-04-24T07:15:38;1.03;;;1.00;;
8982;SDS011;20979;59.850;10.660;2023-04-24T07:18:06;1.33;;;1.00;;
8982;SDS011;20979;59.850;10.660;2023-04-24T07:20:34;1.20;;;1.20;;
8982;SDS011;20979;59.850;10.660;2023-04-24T07:23:01;0.93;;;0.93;;
8982;SDS011;20979;59.850;10.660;2023-04-24T07:25:30;1.83;;;0.83;;
8982;SDS011;20979;59.850;10.660;2023-04-24T07:27:58;0.90;;;0.90;;
8982;SDS011;20979;59.850;10.660;2023-04-24T07:30:25;1.13;;;1.07;;
8982;SDS011;20979;59.850;10.660;2023-04-24T07:32:54;1.37;;;1.20;;
8982;SDS011;20979;59.850;10.660;2023-04-24T07:35:21;1.20;;;1.10;;
8982;SDS011;20979;59.850;10.660;2023-04-24T07:37:50;1.37;;;1.27;;
8982;SDS011;20979;59.850;10.660;2023-04-24T07:40:18;1.53;;;1.17;;
8982;SDS011;20979;59.850;10.660;2023-04-24T07:42:47;1.40;;;1.30;;
8982;SDS011;20979;59.850;10.660;2023-04-24T07:45:15;1.17;;;1.17;;
8982;SDS011;20979;59.850;10.660;2023-04-24T07:47:42;1.10;;;1.00;;
8982;SDS011;20979;59.850;10.660;2023-04-24T07:50:10;1.40;;;1.30;;
8982;SDS011;20979;59.850;10.660;2023-04-24T07:52:38;1.33;;;1.23;;
8982;SDS011;20979;59.850;10.660;2023-04-24T07:55:06;1.50;;;1.40;;
8982;SDS011;20979;59.850;10.660;2023-04-24T07:57:33;1.50;;;1.40;;
8982;SDS011;20979;59.850;10.660;2023-04-24T08:00:03;1.83;;;1.20;;
8982;SDS011;20979;59.850;10.660;2023-04-24T08:02:31;1.80;;;1.10;;
8982;SDS011;20979;59.850;10.660;2023-04-24T08:04:59;1.60;;;1.50;;
8982;SDS011;20979;59.850;10.660;2023-04-24T08:07:28;1.10;;;1.00;;
8982;SDS011;20979;59.850;10.660;2023-04-24T08:09:55;2.40;;;1.40;;
8982;SDS011;20979;59.850;10.660;2023-04-24T08:12:22;1.20;;;1.10;;
8982;SDS011;20979;59.850;10.660;2023-04-24T08:14:50;1.43;;;1.30;;
8982;SDS011;20979;59.850;10.660;2023-04-24T08:17:19;1.10;;;1.10;;
8982;SDS011;20979;59.850;10.660;2023-04-24T08:19:46;1.27;;;1.20;;
8982;SDS011;20979;59.850;10.660;2023-04-24T08:22:14;1.77;;;0.97;;
8982;SDS011;20979;59.850;10.660;2023-04-24T08:24:41;1.10;;;1.00;;
8982;SDS011;20979;59.850;10.660;2023-04-24T08:27:09;0.97;;;0.97;;
8982;SDS011;20979;59.850;10.660;2023-04-24T08:29:36;1.30;;;1.13;;
8982;SDS011;20979;59.850;10.660;2023-04-24T08:32:04;1.00;;;1.00;;
8982;SDS011;20979;59.850;10.660;2023-04-24T08:34:33;1.10;;;0.80;;
8982;SDS011;20979;59.850;10.660;2023-04-24T08:37:00;1.33;;;1.03;;
8982;SDS011;20979;59.850;10.660;2023-04-24T08:39:27;1.00;;;1.00;;
8982;SDS011;20979;59.850;10.660;2023-04-24T08:41:55;0.90;;;0.90;;
8982;SDS011;20979;59.850;10.660;2023-04-24T08:44:30;1.00;;;1.00;;
8982;SDS011;20979;59.850;10.660;2023-04-24T08:46:58;1.50;;;1.00;;
8982;SDS011;20979;59.850;10.660;2023-04-24T08:49:26;0.80;;;0.80;;
8982;SDS011;20979;59.850;10.660;2023-04-24T08:51:55;1.57;;;1.20;;
8982;SDS011;20979;59.850;10.660;2023-04-24T08:54:24;0.97;;;0.97;;
8982;SDS011;20979;59.850;10.660;2023-04-24T08:56:52;1.50;;;1.20;;
8982;SDS011;20979;59.850;10.660;2023-04-24T08:59:20;0.87;;;0.87;;
8982;SDS011;20979;59.850;10.660;2023-04-24T09:01:48;0.87;;;0.87;;
8982;SDS011;20979;59.850;10.660;2023-04-24T09:04:16;1.37;;;1.27;;
8982;SDS011;20979;59.850;10.660;2023-04-24T09:06:45;0.80;;;0.80;;
8982;SDS011;20979;59.850;10.660;2023-04-24T09:09:13;1.13;;;1.03;;
8982;SDS011;20979;59.850;10.660;2023-04-24T09:11:42;1.00;;;1.00;;
8982;SDS011;20979;59.850;10.660;2023-04-24T09:14:10;1.17;;;1.00;;
8982;SDS011;20979;59.850;10.660;2023-04-24T09:16:37;1.50;;;1.27;;
8982;SDS011;20979;59.850;10.660;2023-04-24T09:19:04;1.10;;;1.00;;
8982;SDS011;20979;59.850;10.660;2023-04-24T09:21:32;2.93;;;1.13;;
8982;SDS011;20979;59.850;10.660;2023-04-24T09:24:00;1.43;;;1.07;;
8982;SDS011;20979;59.850;10.660;2023-04-24T09:26:30;1.40;;;1.30;;
8982;SDS011;20979;59.850;10.660;2023-04-24T09:28:58;1.10;;;1.07;;
8982;SDS011;20979;59.850;10.660;2023-04-24T09:31:26;1.37;;;1.27;;
8982;SDS011;20979;59.850;10.660;2023-04-24T09:33:55;1.37;;;1.27;;
8982;SDS011;20979;59.850;10.660;2023-04-24T09:36:29;1.40;;;1.30;;
8982;SDS011;20979;59.850;10.660;2023-04-24T09:38:58;1.43;;;1.33;;
8982;SDS011;20979;59.850;10.660;2023-04-24T09:41:26;2.20;;;1.10;;
8982;SDS011;20979;59.850;10.660;2023-04-24T09:43:55;1.00;;;1.00;;
8982;SDS011;20979;59.850;10.660;2023-04-24T09:46:29;1.80;;;1.30;;
8982;SDS011;20979;59.850;10.660;2023-04-24T09:48:57;1.50;;;1.40;;
8982;SDS011;20979;59.850;10.660;2023-04-24T09:51:33;3.07;;;1.60;;
8982;SDS011;20979;59.850;10.660;2023-04-24T09:54:01;1.60;;;1.50;;
8982;SDS011;20979;59.850;10.660;2023-04-24T09:56:29;1.60;;;1.50;;
8982;SDS011;20979;59.850;10.660;2023-04-24T09:59:05;1.10;;;1.10;;
8982;SDS011;20979;59.850;10.660;2023-04-24T10:01:33;1.13;;;1.00;;
8982;SDS011;20979;59.850;10.660;2023-04-24T10:04:01;2.00;;;0.90;;
8982;SDS011;20979;59.850;10.660;2023-04-24T10:06:33;1.10;;;1.00;;
8982;SDS011;20979;59.850;10.660;2023-04-24T10:09:00;0.93;;;0.90;;
8982;SDS011;20979;59.850;10.660;2023-04-24T10:11:28;0.90;;;0.90;;
8982;SDS011;20979;59.850;10.660;2023-04-24T10:13:56;0.90;;;0.70;;
8982;SDS011;20979;59.850;10.660;2023-04-24T10:16:26;1.17;;;0.70;;
8982;SDS011;20979;59.850;10.660;2023-04-24T10:18:54;0.93;;;0.87;;
8982;SDS011;20979;59.850;10.660;2023-04-24T10:21:22;0.87;;;0.80;;
8982;SDS011;20979;59.850;10.660;2023-04-24T10:23:51;1.30;;;0.70;;
8982;SDS011;20979;59.850;10.660;2023-04-24T10:26:20;1.30;;;0.80;;
8982;SDS011;20979;59.850;10.660;2023-04-24T10:28:48;0.80;;;0.80;;
8982;SDS011;20979;59.850;10.660;2023-04-24T10:31:16;0.70;;;0.70;;
8982;SDS011;20979;59.850;10.660;2023-04-24T10:33:45;0.77;;;0.60;;
8982;SDS011;20979;59.850;10.660;2023-04-24T10:36:13;0.73;;;0.73;;
8982;SDS011;20979;59.850;10.660;2023-04-24T10:38:41;2.07;;;1.10;;
8982;SDS011;20979;59.850;10.660;2023-04-24T10:41:10;1.17;;;1.00;;
8982;SDS011;20979;59.850;10.660;2023-04-24T10:43:41;1.20;;;1.10;;
8982;SDS011;20979;59.850;10.660;2023-04-24T10:46:09;4.37;;;1.27;;
8982;SDS011;20979;59.850;10.660;2023-04-24T10:48:41;1.07;;;0.90;;
8982;SDS011;20979;59.850;10.660;2023-04-24T10:51:12;0.80;;;0.80;;
8982;SDS011;20979;59.850;10.660;2023-04-24T10:53:40;0.80;;;0.80;;
8982;SDS011;20979;59.850;10.660;2023-04-24T10:56:07;1.03;;;0.90;;
8982;SDS011;20979;59.850;10.660;2023-04-24T10:58:36;0.70;;;0.57;;
8982;SDS011;20979;59.850;10.660;2023-04-24T11:01:05;1.00;;;1.00;;
8982;SDS011;20979;59.850;10.660;2023-04-24T11:03:33;0.80;;;0.60;;
8982;SDS011;20979;59.850;10.660;2023-04-24T11:06:01;0.70;;;0.70;;
8982;SDS011;20979;59.850;10.660;2023-04-24T11:08:32;0.60;;;0.60;;
8982;SDS011;20979;59.850;10.660;2023-04-24T11:11:03;0.73;;;0.70;;
8982;SDS011;20979;59.850;10.660;2023-04-24T11:16:26;0.80;;;0.80;;
8982;SDS011;20979;59.850;10.660;2023-04-24T11:18:59;1.57;;;1.10;;
8982;SDS011;20979;59.850;10.660;2023-04-24T11:21:30;0.80;;;0.80;;
8982;SDS011;20979;59.850;10.660;2023-04-24T11:23:59;0.70;;;0.70;;
8982;SDS011;20979;59.850;10.660;2023-04-24T11:26:47;0.93;;;0.73;;
8982;SDS011;20979;59.850;10.660;2023-04-24T11:29:14;0.87;;;0.87;;
8982;SDS011;20979;59.850;10.660;2023-04-24T11:31:43;1.53;;;0.80;;
8982;SDS011;20979;59.850;10.660;2023-04-24T11:34:14;1.10;;;0.80;;
8982;SDS011;20979;59.850;10.660;2023-04-24T11:36:42;0.87;;;0.63;;
8982;SDS011;20979;59.850;10.660;2023-04-24T11:39:12;1.70;;;0.67;;
8982;SDS011;20979;59.850;10.660;2023-04-24T11:41:39;0.67;;;0.60;;
8982;SDS011;20979;59.850;10.660;2023-04-24T11:44:08;0.80;;;0.80;;
8982;SDS011;20979;59.850;10.660;2023-04-24T11:46:36;1.17;;;1.07;;
8982;SDS011;20979;59.850;10.660;2023-04-24T11:49:05;2.17;;;0.80;;
8982;SDS011;20979;59.850;10.660;2023-04-24T11:51:32;1.63;;;1.00;;
8982;SDS011;20979;59.850;10.660;2023-04-24T11:54:01;1.10;;;1.10;;
8982;SDS011;20979;59.850;10.660;2023-04-24T11:56:30;2.93;;;1.00;;
8982;SDS011;20979;59.850;10.660;2023-04-24T11:58:58;1.00;;;1.00;;
8982;SDS011;20979;59.850;10.660;2023-04-24T12:01:25;1.07;;;0.90;;
8982;SDS011;20979;59.850;10.660;2023-04-24T12:03:58;1.63;;;1.17;;
8982;SDS011;20979;59.850;10.660;2023-04-24T12:06:26;1.37;;;1.10;;
8982;SDS011;20979;59.850;10.660;2023-04-24T12:08:53;0.93;;;0.90;;
8982;SDS011;20979;59.850;10.660;2023-04-24T12:11:22;2.10;;;1.30;;
8982;SDS011;20979;59.850;10.660;2023-04-24T12:13:52;1.93;;;1.30;;
8982;SDS011;20979;59.850;10.660;2023-04-24T12:16:19;2.10;;;1.13;;
8982;SDS011;20979;59.850;10.660;2023-04-24T12:18:47;1.17;;;0.90;;
8982;SDS011;20979;59.850;10.660;2023-04-24T12:21:15;0.87;;;0.83;;
8982;SDS011;20979;59.850;10.660;2023-04-24T12:23:42;1.20;;;1.10;;
8982;SDS011;20979;59.850;10.660;2023-04-24T12:26:10;1.10;;;1.00;;
8982;SDS011;20979;59.850;10.660;2023-04-24T12:28:38;1.33;;;1.33;;
8982;SDS011;20979;59.850;10.660;2023-04-24T12:31:07;2.33;;;1.20;;
8982;SDS011;20979;59.850;10.660;2023-04-24T12:33:35;1.57;;;1.47;;
8982;SDS011;20979;59.850;10.660;2023-04-24T12:36:03;1.60;;;1.50;;
8982;SDS011;20979;59.850;10.660;2023-04-24T12:38:31;1.43;;;1.10;;
8982;SDS011;20979;59.850;10.660;2023-04-24T12:41:05;1.10;;;1.00;;
8982;SDS011;20979;59.850;10.660;2023-04-24T12:43:33;1.30;;;1.20;;
8982;SDS011;20979;59.850;10.660;2023-04-24T12:46:00;3.03;;;1.80;;
8982;SDS011;20979;59.850;10.660;2023-04-24T12:48:29;1.40;;;1.30;;
8982;SDS011;20979;59.850;10.660;2023-04-24T12:50:57;1.70;;;1.60;;
8982;SDS011;20979;59.850;10.660;2023-04-24T12:53:26;4.23;;;1.60;;
8982;SDS011;20979;59.850;10.660;2023-04-24T12:55:55;1.60;;;1.23;;
8982;SDS011;20979;59.850;10.660;2023-04-24T12:58:22;1.90;;;1.30;;
8982;SDS011;20979;59.850;10.660;2023-04-24T13:00:50;0.90;;;0.80;;
8982;SDS011;20979;59.850;10.660;2023-04-24T13:03:17;1.43;;;1.30;;
8982;SDS011;20979;59.850;10.660;2023-04-24T13:05:46;1.37;;;1.27;;
8982;SDS011;20979;59.850;10.660;2023-04-24T13:08:13;1.23;;;1.00;;
8982;SDS011;20979;59.850;10.660;2023-04-24T13:10:41;1.70;;;1.60;;
8982;SDS011;20979;59.850;10.660;2023-04-24T13:13:08;3.00;;;1.03;;
8982;SDS011;20979;59.850;10.660;2023-04-24T13:15:36;1.30;;;1.20;;
8982;SDS011;20979;59.850;10.660;2023-04-24T13:18:03;2.13;;;1.77;;
8982;SDS011;20979;59.850;10.660;2023-04-24T13:20:31;1.23;;;1.17;;
8982;SDS011;20979;59.850;10.660;2023-04-24T13:23:02;1.33;;;0.80;;
8982;SDS011;20979;59.850;10.660;2023-04-24T13:25:30;1.03;;;1.00;;
8982;SDS011;20979;59.850;10.660;2023-04-24T13:27:57;3.43;;;1.40;;
8982;SDS011;20979;59.850;10.660;2023-04-24T13:30:25;2.03;;;1.83;;
8982;SDS011;20979;59.850;10.660;2023-04-24T13:32:52;1.60;;;1.43;;
8982;SDS011;20979;59.850;10.660;2023-04-24T13:35:19;1.57;;;1.47;;
8982;SDS011;20979;59.850;10.660;2023-04-24T13:37:47;6.80;;;2.87;;
8982;SDS011;20979;59.850;10.660;2023-04-24T13:40:16;3.40;;;1.93;;
8982;SDS011;20979;59.850;10.660;2023-04-24T13:42:43;3.10;;;1.90;;
8982;SDS011;20979;59.850;10.660;2023-04-24T13:45:11;2.57;;;1.60;;
8982;SDS011;20979;59.850;10.660;2023-04-24T13:47:38;2.57;;;2.17;;
8982;SDS011;20979;59.850;10.660;2023-04-24T13:50:07;2.70;;;1.93;;
8982;SDS011;20979;59.850;10.660;2023-04-24T13:52:34;2.80;;;1.70;;
8982;SDS011;20979;59.850;10.660;2023-04-24T13:55:02;2.07;;;1.50;;
8982;SDS011;20979;59.850;10.660;2023-04-24T13:57:31;1.77;;;1.10;;
8982;SDS011;20979;59.850;10.660;2023-04-24T13:59:58;0.90;;;0.90;;
8982;SDS011;20979;59.850;10.660;2023-04-24T14:02:28;2.77;;;0.90;;
8982;SDS011;20979;59.850;10.660;2023-04-24T14:04:56;1.40;;;1.00;;
8982;SDS011;20979;59.850;10.660;2023-04-24T14:07:23;1.00;;;0.90;;
8982;SDS011;20979;59.850;10.660;2023-04-24T14:09:51;1.03;;;0.97;;
8982;SDS011;20979;59.850;10.660;2023-04-24T14:12:18;0.77;;;0.60;;
8982;SDS011;20979;59.850;10.660;2023-04-24T14:14:47;1.50;;;1.00;;
8982;SDS011;20979;59.850;10.660;2023-04-24T14:17:15;1.00;;;0.90;;
8982;SDS011;20979;59.850;10.660;2023-04-24T14:19:42;0.80;;;0.80;;
8982;SDS011;20979;59.850;10.660;2023-04-24T14:22:09;0.70;;;0.60;;
8982;SDS011;20979;59.850;10.660;2023-04-24T14:24:37;0.73;;;0.73;;
8982;SDS011;20979;59.850;10.660;2023-04-24T14:27:04;1.07;;;0.67;;
8982;SDS011;20979;59.850;10.660;2023-04-24T14:29:32;1.00;;;0.90;;
8982;SDS011;20979;59.850;10.660;2023-04-24T14:32:01;1.90;;;1.47;;
8982;SDS011;20979;59.850;10.660;2023-04-24T14:34:28;3.57;;;1.33;;
8982;SDS011;20979;59.850;10.660;2023-04-24T14:36:55;1.10;;;1.00;;
8982;SDS011;20979;59.850;10.660;2023-04-24T14:39:23;1.73;;;1.63;;
8982;SDS011;20979;59.850;10.660;2023-04-24T14:41:51;2.07;;;1.57;;
8982;SDS011;20979;59.850;10.660;2023-04-24T14:44:18;3.53;;;2.80;;
8982;SDS011;20979;59.850;10.660;2023-04-24T14:46:45;1.90;;;1.80;;
8982;SDS011;20979;59.850;10.660;2023-04-24T14:49:14;2.37;;;2.17;;
8982;SDS011;20979;59.850;10.660;2023-04-24T14:51:42;2.37;;;2.00;;
8982;SDS011;20979;59.850;10.660;2023-04-24T14:54:09;2.30;;;1.53;;
8982;SDS011;20979;59.850;10.660;2023-04-24T14:56:36;1.13;;;1.13;;